• Join FlightAware (Why Join?)
  • Login
  • US Flag 
06:40AM EDT


 

Airport Tracker/Info


-or-


 

Live Flight TrackerFlight Track Log ✈ SWA118 ✈ 23-Apr-2013 ✈ KMCI - KDAL

Flight Track Log - Related Links

Times and Time Zones

All times are in EDT time to prevent confusion due to time zone crossing. See the SWA118 flight status page for this flight to view local times or setup timezone preferences in your user account.

Time Position Orientation Groundspeed Altitude Reporting Facility
EDT Latitude Longitude Course Direction KTS MPH feet Rate Location/Type
08:23PM 39.3333 -94.7167 360° North 152 175 2,800  Level Kansas City TRACON
08:24PM 39.3486 -94.7911 285° West 236 272 6,500 3,600 Climbing Kansas City Center
08:25PM 39.2775 -94.8147 194° South 270 311 10,900 3,420 Climbing Kansas City Center
08:26PM 39.1822 -94.8422 193° South 326 375 13,600 3,240 Climbing Kansas City Center
08:27PM 39.0944 -94.8675 193° South 333 383 17,700 3,660 Climbing Kansas City Center
08:28PM 38.9922 -94.8983 193° South 337 388 21,200 3,060 Climbing Kansas City Center
08:29PM 38.8992 -94.9269 193° South 353 406 24,100 2,640 Climbing Kansas City Center
08:30PM 38.8044 -94.9553 193° South 361 415 26,600 2,340 Climbing Kansas City Center
08:31PM 38.6889 -94.9861 192° South 377 434 29,000 1,140 Climbing Kansas City Center
08:33PM 38.5886 -95.0128 192° South 383 441 29,000  Level Kansas City Center
08:34PM 38.4719 -95.0458 193° South 384 442 29,000 180 Level Kansas City Center
08:35PM 38.3711 -95.0728 192° South 385 443 29,400 1,320 Climbing Kansas City Center
08:36PM 38.2692 -95.1014 192° South 390 449 31,800 2,340 Climbing Kansas City Center
08:37PM 38.1547 -95.1328 192° South 381 438 34,300 1,920 Climbing Kansas City Center
08:38PM 38.0583 -95.1653 195° South 374 430 35,900 780 Climbing Kansas City Center
08:39PM 37.9447 -95.2033 195° South 378 435 36,000  Climbing Kansas City Center
08:40PM 37.8575 -95.2347 196° South 380 437 36,000  Level Kansas City Center
08:41PM 37.7347 -95.2786 196° South 381 438 36,000  Level Kansas City Center
08:42PM 37.6314 -95.3111 194° South 382 440 36,000  Level Kansas City Center
08:43PM 37.5294 -95.3458 195° South 380 437 36,000  Level Kansas City Center
08:44PM 37.4261 -95.3822 196° South 384 442 36,000  Level Kansas City Center
08:45PM 37.3239 -95.4156 195° South 380 437 36,000  Level Kansas City Center
08:46PM 37.2217 -95.4503 195° South 380 437 36,000  Level Kansas City Center
08:47PM 37.1100 -95.4553 182° South 401 461 36,000  Level Kansas City Center
08:48PM 36.9978 -95.4453 176° South 405 466 36,000  Level Kansas City Center
08:49PM 36.8864 -95.4356 176° South 402 463 36,000  Level Kansas City Center
08:50PM 36.7533 -95.4256 177° South 399 459 36,000  Level Kansas City Center
08:51PM 36.6419 -95.4167 176° South 399 459 36,000  Level Kansas City Center
08:52PM 36.5428 -95.4083 176° South 399 459 36,000  Level Kansas City Center
08:53PM 36.4319 -95.3989 176° South 399 459 36,000  Level Kansas City Center
08:54PM 36.2964 -95.3869 176° South 402 463 36,000  Level Kansas City Center
08:55PM 36.1844 -95.3775 176° South 403 464 36,000  Level Kansas City Center
08:56PM 36.0739 -95.3708 177° South 402 463 36,000  Level Kansas City Center
08:57PM 35.9603 -95.3614 176° South 401 461 36,000  Level Kansas City Center
08:58PM 35.8478 -95.3525 176° South 404 465 36,000  Level Kansas City Center
08:59PM 35.7336 -95.3439 176° South 407 468 36,000  Level Kansas City Center
09:00PM 35.6200 -95.3353 176° South 408 470 36,000  Level Kansas City Center
09:01PM 35.4786 -95.3258 177° South 406 467 36,000  Level Fort Worth Center
09:02PM 35.3658 -95.3186 177° South 406 467 36,000  Level Fort Worth Center
09:03PM 35.2508 -95.3086 176° South 406 467 36,000  Level Fort Worth Center
09:04PM 35.1361 -95.2989 176° South 411 473 36,000  Level Fort Worth Center
09:05PM 35.0211 -95.2914 177° South 416 479 36,000 -60 Level Fort Worth Center
09:06PM 34.9086 -95.2867 178° South 416 479 35,900 -960 Descending Fort Worth Center
09:07PM 34.7956 -95.2744 175° South 411 473 34,100 -1,980 Descending Fort Worth Center
09:08PM 34.6872 -95.2694 178° South 406 467 32,000 -2,160 Descending Fort Worth Center
09:09PM 34.5850 -95.2694 180° South 396 456 29,800 -2,160 Descending Fort Worth Center
09:10PM 34.4825 -95.2644 178° South 381 438 27,700 -2,040 Descending Fort Worth Center
09:11PM 34.3783 -95.2647 180° South 376 433 25,800 -1,380 Descending Fort Worth Center
09:12PM 34.2822 -95.2594 177° South 362 417 25,000 -420 Descending Fort Worth Center
09:13PM 34.1861 -95.2594 180° South 351 404 25,000  Level Fort Worth Center
09:14PM 34.0900 -95.2542 177° South 345 397 25,000 -420 Level Fort Worth Center
09:15PM 33.9961 -95.2514 179° South 345 397 24,200 -540 Descending Fort Worth Center
09:16PM 33.9261 -95.3108 215° Southwest 327 376 24,000 -120 Descending Fort Worth Center
09:17PM 33.8775 -95.3894 233° Southwest 294 338 24,000  Level Fort Worth Center
09:18PM 33.8244 -95.4733 233° Southwest 300 345 24,000 -360 Level Fort Worth Center
09:19PM 33.7653 -95.5644 232° Southwest 330 380 23,300 -1,740 Descending Fort Worth Center
09:20PM 33.7061 -95.6581 233° Southwest 337 388 20,600 -2,520 Descending Fort Worth Center
09:21PM 33.6511 -95.7442 233° Southwest 337 388 18,300 -2,340 Descending Fort Worth Center
09:22PM 33.5997 -95.8225 232° Southwest 327 376 16,000 -2,340 Descending Fort Worth Center
09:23PM 33.5444 -95.9031 231° Southwest 310 357 13,700 -2,340 Descending Fort Worth Center
09:24PM 33.4953 -95.9786 232° Southwest 305 351 11,400 -1,800 Descending Fort Worth Center
09:25PM 33.4461 -96.0542 232° Southwest 300 345 10,200 -720 Descending Fort Worth Center
09:26PM 33.3989 -96.1269 232° Southwest 295 339 10,000 -600 Descending Fort Worth Center
09:27PM 33.3556 -96.1947 233° Southwest 275 316 9,000 -540 Descending Fort Worth Center
09:28PM 33.3103 -96.2625 231° Southwest 265 305 9,000  Level Fort Worth Center
09:29PM 33.2692 -96.3278 233° Southwest 260 299 9,000 -360 Level Fort Worth Center
09:30PM 33.2300 -96.3878 232° Southwest 255 293 8,300 -1,200 Descending Fort Worth Center
09:31PM 33.1825 -96.4603 232° Southwest 255 293 6,700 -1,500 Descending Fort Worth Center
09:32PM 33.1347 -96.5006 215° Southwest 242 278 5,400 -900 Descending Fort Worth Center
09:33PM 33.0661 -96.5383 205° Southwest 242 278 5,000 -240 Descending Fort Worth Center
09:34PM 33.0122 -96.5686 205° Southwest 242 278 5,000  Level Fort Worth Center
09:35PM 32.9453 -96.5742 184° South 224 258 5,000  Level Fort Worth Center
09:36PM 32.8994 -96.5672 173° South 195 224 5,000 -240 Level Fort Worth Center
09:37PM 32.8431 -96.5553 170° South 195 224 4,600 -1,020 Descending Fort Worth Center
09:38PM 32.7969 -96.5483 173° South 190 219 3,000 -840 Descending Fort Worth Center
09:39PM 32.7303 -96.5589 188° South 211 243 3,000  Level Fort Worth Center
09:42PM 32.6667 -96.6167 217° Southwest 169 194 3,000  Level Dallas / Fort Worth TRACON
09:43PM 32.6833 -96.6667 292° West 148 170 3,000  Level Dallas / Fort Worth TRACON
09:44PM 32.7167 -96.7000 320° Northwest 152 175 3,000  Level Dallas / Fort Worth TRACON